This is the latest recevied weather packets stored in our database for station/object K4AVM-13. If no packets are shown the sender has not sent any weather packets the latest 10 day(s).
| Time | Temp. | Humidity | Pressure | Rain* | Wind** | Luminosity | Snow |
|---|---|---|---|---|---|---|---|
| 1777760246 | 14.44° C | 44% | 1012.9 hPa | 0 mm | - | 69 W/m² | - |
| 1777759639 | 15° C | 45% | 1013.3 hPa | 0 mm | - | 81 W/m² | - |
| 1777757815 | 15° C | 44% | 1013 hPa | 0 mm | - | 87 W/m² | - |
| 1777757512 | 15° C | 45% | 1013 hPa | 0 mm | - | 94 W/m² | - |
| 1777757211 | 15° C | 44% | 1013.1 hPa | 0 mm | - | 107 W/m² | - |
| 1777756909 | 15.56° C | 44% | 1013 hPa | 0 mm | - | 103 W/m² | - |
| 1777756604 | 15.56° C | 46% | 1012.8 hPa | 0 mm | - | 98 W/m² | - |
| 1777756301 | 16.11° C | 42% | 1012.9 hPa | 0 mm | - | 136 W/m² | - |
| 1777755998 | 16.67° C | 41% | 1012.9 hPa | 0 mm | - | 176 W/m² | - |
| 1777755392 | 16.11° C | 43% | 1012.7 hPa | 0 mm | - | 287 W/m² | - |
| 1777753879 | 15.56° C | 43% | 1013 hPa | 0 mm | - | 187 W/m² | - |
| 1777753573 | 15.56° C | 43% | 1013.1 hPa | 0 mm | - | 161 W/m² | - |
| 1777753266 | 15.56° C | 42% | 1013 hPa | 0 mm | - | 192 W/m² | - |
| 1777752962 | 15.56° C | 42% | 1013.1 hPa | 0 mm | - | 198 W/m² | - |
| 1777752658 | 15.56° C | 43% | 1013 hPa | 0 mm | - | 181 W/m² | - |
| 1777752354 | 15.56° C | 43% | 1013 hPa | 0 mm | - | 200 W/m² | - |
| 1777752052 | 15.56° C | 41% | 1013 hPa | 0 mm | - | 229 W/m² | - |
| 1777751750 | 16.11° C | 42% | 1013.2 hPa | 0 mm | - | 246 W/m² | - |
| 1777751446 | 16.11° C | 42% | 1013 hPa | 0 mm | - | 231 W/m² | - |
| 1777751143 | 15.56° C | 45% | 1013.2 hPa | 0 mm | - | 313 W/m² | - |
| 1777750839 | 16.11° C | 42% | 1013.2 hPa | 0 mm | - | 272 W/m² | - |
| 1777750233 | 16.11° C | 42% | 1013.5 hPa | 0 mm | - | 269 W/m² | - |
| 1777749928 | 16.11° C | 42% | 1013.4 hPa | 0 mm | - | 332 W/m² | - |
| 1777749626 | 16.11° C | 43% | 1013.6 hPa | 0 mm | - | 371 W/m² | - |
| 1777749323 | 15.56° C | 45% | 1013.6 hPa | 0 mm | - | 314 W/m² | - |
* Rain latest hour (hover to see other rain measurements)
** Current wind speed in m/s (hover to see current wind gust speed)